createdAt,value
2022-07-29T00:01:43.568Z,1.60
2022-07-29T00:04:14.110Z,1.37
2022-07-29T00:06:44.833Z,1.40
2022-07-29T00:09:12.203Z,1.20
2022-07-29T00:11:39.515Z,1.40
2022-07-29T00:14:06.799Z,1.23
2022-07-29T00:16:34.273Z,1.60
2022-07-29T00:19:02.470Z,1.47
2022-07-29T00:21:30.246Z,1.40
2022-07-29T00:23:58.812Z,1.30
2022-07-29T00:26:28.191Z,1.48
2022-07-29T00:29:17.103Z,1.48
2022-07-29T00:31:42.602Z,1.83
2022-07-29T00:34:29.811Z,1.50
2022-07-29T00:36:57.666Z,1.45
2022-07-29T00:39:24.945Z,1.52
2022-07-29T00:41:54.889Z,1.63
2022-07-29T00:44:22.147Z,1.55
2022-07-29T00:46:49.400Z,1.40
2022-07-29T00:49:16.669Z,1.70
2022-07-29T00:51:44.096Z,1.60
2022-07-29T00:54:11.315Z,1.48
2022-07-29T00:56:38.542Z,1.42
2022-07-29T00:59:05.728Z,1.40
2022-07-29T01:01:34.147Z,1.50
2022-07-29T01:04:01.432Z,1.60
2022-07-29T01:06:28.786Z,1.50
2022-07-29T01:08:56.399Z,1.70
2022-07-29T01:11:23.822Z,1.60
2022-07-29T01:13:51.170Z,1.60
2022-07-29T01:16:33.320Z,1.65
2022-07-29T01:19:13.066Z,1.40
2022-07-29T01:21:56.070Z,1.20
2022-07-29T01:25:03.139Z,1.53
2022-07-29T01:27:55.465Z,1.73
2022-07-29T01:30:25.115Z,1.60
2022-07-29T01:32:58.134Z,1.50
2022-07-29T01:35:29.584Z,1.60
2022-07-29T01:38:21.248Z,1.70
2022-07-29T01:40:54.008Z,1.80
2022-07-29T01:43:28.004Z,1.80
2022-07-29T01:46:02.441Z,1.70
2022-07-29T01:48:41.960Z,1.87
2022-07-29T01:51:32.459Z,1.85
2022-07-29T01:54:07.607Z,1.70
2022-07-29T01:56:37.298Z,1.80
2022-07-29T01:59:07.066Z,1.73
2022-07-29T02:01:35.782Z,1.80
2022-07-29T02:04:06.215Z,1.80
2022-07-29T02:06:35.907Z,1.80
2022-07-29T02:09:03.738Z,2.00
2022-07-29T02:11:34.143Z,1.77
2022-07-29T02:14:02.667Z,2.00
2022-07-29T02:16:33.376Z,1.98
2022-07-29T02:19:02.813Z,1.90
2022-07-29T02:21:32.944Z,1.67
2022-07-29T02:24:02.523Z,2.28
2022-07-29T02:26:31.623Z,1.88
2022-07-29T02:29:00.999Z,1.80
2022-07-29T02:31:33.499Z,1.90
2022-07-29T02:34:07.287Z,1.70
2022-07-29T02:36:35.173Z,1.97
2022-07-29T02:39:04.256Z,1.80
2022-07-29T02:41:34.194Z,1.60
2022-07-29T02:44:17.020Z,1.80
2022-07-29T02:46:52.936Z,1.50
2022-07-29T02:49:29.173Z,1.67
2022-07-29T02:52:01.290Z,1.77
2022-07-29T02:54:46.933Z,1.70
2022-07-29T02:57:55.034Z,1.60
2022-07-29T03:00:28.087Z,1.98
2022-07-29T03:02:59.498Z,1.77
2022-07-29T03:05:27.178Z,1.60
2022-07-29T03:07:58.299Z,1.70
2022-07-29T03:10:27.102Z,1.60
2022-07-29T03:12:56.195Z,1.90
2022-07-29T03:15:24.758Z,1.90
2022-07-29T03:17:53.620Z,1.80
2022-07-29T03:20:21.571Z,1.88
2022-07-29T03:22:49.048Z,1.70
2022-07-29T03:25:17.566Z,1.58
2022-07-29T03:27:45.864Z,1.88
2022-07-29T03:30:16.866Z,1.50
2022-07-29T03:32:48.199Z,1.42
2022-07-29T03:35:17.473Z,1.50
2022-07-29T03:37:45.250Z,1.50
2022-07-29T03:40:26.222Z,1.90
2022-07-29T03:42:54.891Z,1.65
2022-07-29T03:45:23.616Z,1.50
2022-07-29T03:48:02.941Z,1.40
2022-07-29T03:50:31.656Z,1.50
2022-07-29T03:53:00.587Z,1.60
2022-07-29T03:55:30.301Z,1.70
2022-07-29T03:57:58.225Z,1.63
2022-07-29T04:00:26.498Z,1.90
2022-07-29T04:02:53.773Z,1.70
2022-07-29T04:05:21.159Z,1.50
2022-07-29T04:07:49.865Z,1.75
2022-07-29T04:10:18.061Z,1.70
2022-07-29T04:12:57.483Z,1.70
2022-07-29T04:15:24.711Z,1.70
2022-07-29T04:17:51.912Z,1.80
2022-07-29T04:20:19.412Z,1.73
2022-07-29T04:22:46.593Z,1.70
2022-07-29T04:25:13.808Z,1.77
2022-07-29T04:28:00.965Z,1.73
2022-07-29T04:30:28.783Z,1.73
2022-07-29T04:32:56.013Z,1.60
2022-07-29T04:35:23.263Z,1.80
2022-07-29T04:37:50.482Z,1.67
2022-07-29T04:40:17.786Z,1.70
2022-07-29T04:42:46.427Z,1.57
2022-07-29T04:45:13.967Z,1.70
2022-07-29T04:47:41.822Z,1.70
2022-07-29T04:50:10.279Z,1.95
2022-07-29T04:52:37.842Z,1.60
2022-07-29T04:55:05.977Z,1.98
2022-07-29T04:57:33.390Z,1.67
2022-07-29T05:00:00.644Z,1.80
2022-07-29T05:02:27.860Z,1.83
2022-07-29T05:04:55.083Z,1.75
2022-07-29T05:07:22.425Z,1.45
2022-07-29T05:09:49.733Z,1.80
2022-07-29T05:12:17.358Z,1.67
2022-07-29T05:14:44.549Z,1.60
2022-07-29T05:17:11.827Z,1.70
2022-07-29T05:19:39.540Z,1.58
2022-07-29T05:22:07.115Z,1.73
2022-07-29T05:24:34.322Z,1.58
2022-07-29T05:27:01.563Z,1.90
2022-07-29T05:29:42.750Z,1.70
2022-07-29T05:32:13.198Z,1.60
2022-07-29T05:34:50.089Z,1.73
2022-07-29T05:37:21.636Z,1.65
2022-07-29T05:39:56.328Z,1.73
2022-07-29T05:42:25.381Z,1.90
2022-07-29T05:44:53.853Z,1.80
2022-07-29T05:47:21.120Z,1.90
2022-07-29T05:49:48.311Z,1.63
2022-07-29T05:52:15.995Z,1.90
2022-07-29T05:54:43.411Z,1.70
2022-07-29T05:57:20.096Z,1.95
2022-07-29T05:59:47.475Z,1.90
2022-07-29T06:02:14.942Z,1.80
2022-07-29T06:04:42.384Z,1.70
2022-07-29T06:07:09.759Z,1.80
2022-07-29T06:09:36.917Z,1.80
2022-07-29T06:12:04.503Z,1.90
2022-07-29T06:14:31.766Z,2.00
2022-07-29T06:16:58.921Z,1.80
2022-07-29T06:19:26.752Z,1.90
2022-07-29T06:21:53.924Z,1.60
2022-07-29T06:24:21.163Z,1.80
2022-07-29T06:26:48.430Z,1.80
2022-07-29T06:29:15.694Z,2.22
2022-07-29T06:31:42.921Z,1.80
2022-07-29T06:34:10.450Z,1.90
2022-07-29T06:36:39.823Z,1.90
2022-07-29T06:39:09.083Z,1.73
2022-07-29T06:41:36.606Z,1.73
2022-07-29T06:44:10.295Z,1.67
2022-07-29T06:46:37.707Z,1.63
2022-07-29T06:49:05.749Z,2.07
2022-07-29T06:51:33.375Z,1.92
2022-07-29T06:54:03.221Z,1.70
2022-07-29T06:56:42.568Z,1.90
2022-07-29T06:59:11.753Z,1.85
2022-07-29T07:01:41.761Z,1.80
2022-07-29T07:04:10.009Z,1.85
2022-07-29T07:06:37.750Z,1.80
2022-07-29T07:09:05.158Z,2.00
2022-07-29T07:11:32.546Z,1.80
2022-07-29T07:14:03.589Z,2.10
2022-07-29T07:16:32.769Z,1.98
2022-07-29T07:19:00.560Z,1.70
2022-07-29T07:21:30.320Z,1.90
2022-07-29T07:23:58.835Z,2.05
2022-07-29T07:26:26.450Z,1.70
2022-07-29T07:28:53.901Z,1.70
2022-07-29T07:31:21.420Z,2.10
2022-07-29T07:33:48.718Z,2.23
2022-07-29T07:36:15.875Z,1.90
2022-07-29T07:38:43.062Z,1.90
2022-07-29T07:41:10.382Z,1.87
2022-07-29T07:43:37.583Z,1.90
2022-07-29T07:46:05.158Z,1.83
2022-07-29T07:48:32.413Z,2.10
2022-07-29T07:50:59.563Z,1.90
2022-07-29T07:53:26.825Z,2.17
2022-07-29T07:56:09.947Z,1.80
2022-07-29T07:58:39.376Z,2.03
2022-07-29T08:01:06.670Z,1.92
2022-07-29T08:03:34.357Z,1.80
2022-07-29T08:06:01.831Z,1.80
2022-07-29T08:08:29.053Z,2.07
2022-07-29T08:10:56.909Z,2.07
2022-07-29T08:13:28.074Z,2.10
2022-07-29T08:15:59.090Z,2.00
2022-07-29T08:18:31.765Z,2.08
2022-07-29T08:20:59.431Z,2.00
2022-07-29T08:23:46.131Z,2.00
2022-07-29T08:26:16.301Z,1.90
2022-07-29T08:28:50.292Z,2.03
2022-07-29T08:31:18.193Z,2.20
2022-07-29T08:33:45.626Z,2.10
2022-07-29T08:36:14.063Z,2.03
2022-07-29T08:38:41.401Z,2.20
2022-07-29T08:41:08.704Z,2.17
2022-07-29T08:43:38.256Z,2.13
2022-07-29T08:46:05.747Z,2.10
2022-07-29T08:48:34.194Z,2.20
2022-07-29T08:51:02.481Z,2.05
2022-07-29T08:53:30.424Z,2.30
2022-07-29T08:55:58.776Z,2.30
2022-07-29T08:58:27.770Z,2.20
2022-07-29T09:00:58.023Z,2.30
2022-07-29T09:03:28.204Z,2.37
2022-07-29T09:05:55.798Z,2.20
2022-07-29T09:08:24.580Z,2.30
2022-07-29T09:10:52.621Z,2.53
2022-07-29T09:13:19.857Z,2.50
2022-07-29T09:15:47.099Z,2.45
2022-07-29T09:18:39.115Z,2.80
2022-07-29T09:21:26.792Z,2.50
2022-07-29T09:24:11.688Z,2.40
2022-07-29T09:26:42.460Z,2.70
2022-07-29T09:29:20.731Z,2.90
2022-07-29T09:31:50.529Z,3.03
2022-07-29T09:34:32.562Z,2.83
2022-07-29T09:36:59.787Z,3.17
2022-07-29T09:39:38.910Z,3.10
2022-07-29T09:42:07.289Z,3.00
2022-07-29T09:44:50.052Z,3.00
2022-07-29T09:47:19.215Z,3.00
2022-07-29T09:49:55.044Z,3.00
2022-07-29T09:52:22.515Z,3.25
2022-07-29T09:54:49.846Z,3.55
2022-07-29T09:57:30.561Z,3.90
2022-07-29T09:59:59.583Z,3.17
2022-07-29T10:02:32.153Z,3.90
2022-07-29T10:05:01.448Z,4.10
2022-07-29T10:07:56.987Z,4.05
2022-07-29T10:10:32.905Z,4.00
2022-07-29T10:13:07.806Z,3.92
2022-07-29T10:15:40.239Z,3.90
2022-07-29T10:18:12.126Z,4.07
2022-07-29T10:20:40.313Z,4.10
2022-07-29T10:23:07.469Z,4.25
2022-07-29T10:25:34.682Z,4.03
2022-07-29T10:28:01.895Z,3.90
2022-07-29T10:30:29.482Z,3.92
2022-07-29T10:33:17.693Z,4.00
2022-07-29T10:36:12.851Z,4.33
2022-07-29T10:39:03.332Z,4.50
2022-07-29T10:42:08.277Z,4.70
2022-07-29T10:44:40.419Z,4.32
2022-07-29T10:47:07.828Z,4.03
2022-07-29T10:49:35.193Z,4.28
2022-07-29T10:52:07.257Z,4.57
2022-07-29T10:54:34.879Z,4.20
2022-07-29T10:57:14.416Z,4.60
2022-07-29T10:59:42.922Z,4.80
2022-07-29T11:02:42.249Z,4.18
2022-07-29T11:05:18.762Z,4.57
2022-07-29T11:11:19.870Z,4.07
2022-07-29T11:13:52.233Z,4.40
2022-07-29T11:16:25.200Z,4.15
2022-07-29T11:19:11.314Z,4.65
2022-07-29T11:21:54.145Z,4.63
2022-07-29T11:24:33.115Z,4.80
2022-07-29T11:27:13.182Z,4.47
2022-07-29T11:29:49.804Z,5.30
2022-07-29T11:32:22.893Z,4.57
2022-07-29T11:35:18.832Z,4.50
2022-07-29T11:37:55.910Z,4.90
2022-07-29T11:40:25.103Z,4.72
2022-07-29T11:42:53.059Z,5.63
2022-07-29T11:45:42.082Z,5.60
2022-07-29T11:48:29.099Z,5.75
2022-07-29T11:50:58.371Z,4.65
2022-07-29T11:53:26.003Z,4.55
2022-07-29T11:55:58.212Z,4.57
2022-07-29T11:58:27.052Z,4.57
2022-07-29T12:00:55.556Z,5.03
2022-07-29T12:03:34.208Z,5.17
2022-07-29T12:06:14.937Z,4.97
2022-07-29T12:08:44.334Z,5.00
2022-07-29T12:11:21.714Z,4.83
2022-07-29T12:13:51.290Z,4.50
2022-07-29T12:16:25.452Z,5.15
2022-07-29T12:19:02.592Z,4.97
2022-07-29T12:21:56.297Z,5.43
2022-07-29T12:24:26.991Z,5.07
2022-07-29T12:26:56.620Z,5.40
2022-07-29T12:29:35.237Z,5.10
2022-07-29T12:32:05.461Z,5.80
2022-07-29T12:34:33.374Z,5.25
2022-07-29T12:37:01.830Z,5.27
2022-07-29T12:39:29.346Z,5.55
2022-07-29T12:42:04.873Z,5.20
2022-07-29T12:44:46.461Z,5.87
2022-07-29T12:47:13.994Z,5.30
2022-07-29T12:49:41.218Z,4.90
2022-07-29T12:52:31.799Z,5.50
2022-07-29T12:54:59.315Z,5.10
2022-07-29T12:57:26.849Z,6.10
2022-07-29T13:00:24.086Z,4.93
2022-07-29T13:02:59.092Z,5.55
2022-07-29T13:05:48.824Z,5.90
2022-07-29T13:08:20.262Z,5.68
2022-07-29T13:10:49.363Z,5.75
2022-07-29T13:13:16.591Z,5.30
2022-07-29T13:15:45.583Z,5.85
2022-07-29T13:18:32.978Z,5.17
2022-07-29T13:21:16.600Z,5.33
2022-07-29T13:23:45.959Z,5.97
2022-07-29T13:26:13.419Z,4.90
2022-07-29T13:28:40.873Z,4.82
2022-07-29T13:31:11.807Z,5.13
2022-07-29T13:33:39.179Z,4.50
2022-07-29T13:36:06.686Z,5.00
2022-07-29T13:38:34.812Z,5.40
2022-07-29T13:41:03.046Z,5.20
2022-07-29T13:43:30.577Z,4.85
2022-07-29T13:45:57.862Z,5.20
2022-07-29T13:48:25.067Z,5.15
2022-07-29T13:50:52.356Z,4.75
2022-07-29T13:53:19.625Z,5.35
2022-07-29T13:55:54.748Z,5.03
2022-07-29T13:58:21.990Z,4.55
2022-07-29T14:00:49.404Z,5.25
2022-07-29T14:03:16.790Z,4.97
2022-07-29T14:05:44.202Z,5.27
2022-07-29T14:08:11.462Z,4.10
2022-07-29T14:10:38.649Z,4.50
2022-07-29T14:13:05.902Z,4.40
2022-07-29T14:15:52.092Z,4.67
2022-07-29T14:18:19.325Z,4.68
2022-07-29T14:20:46.542Z,5.03
2022-07-29T14:23:16.220Z,4.90
2022-07-29T14:25:43.707Z,4.60
2022-07-29T14:28:11.779Z,4.68
2022-07-29T14:30:42.041Z,4.63
2022-07-29T14:33:09.236Z,5.03
2022-07-29T14:35:36.515Z,4.25
2022-07-29T14:38:03.893Z,4.90
2022-07-29T14:40:31.150Z,4.80
2022-07-29T14:43:00.781Z,4.47
2022-07-29T14:45:29.154Z,4.93
2022-07-29T14:47:57.505Z,4.80
2022-07-29T14:50:31.288Z,4.28
2022-07-29T14:53:03.114Z,5.03
2022-07-29T14:55:30.423Z,4.47
2022-07-29T14:58:07.726Z,5.10
2022-07-29T15:00:37.754Z,5.15
2022-07-29T15:03:05.677Z,5.10
2022-07-29T15:05:33.069Z,4.65
2022-07-29T15:08:00.725Z,5.00
2022-07-29T15:10:28.274Z,4.15
2022-07-29T15:12:56.542Z,5.43
2022-07-29T15:15:23.826Z,4.35
2022-07-29T15:17:51.070Z,4.88
2022-07-29T15:20:18.919Z,4.30
2022-07-29T15:22:46.126Z,4.20
2022-07-29T15:25:13.519Z,4.03
2022-07-29T15:27:40.916Z,4.32
2022-07-29T15:30:32.857Z,4.90
2022-07-29T15:33:03.789Z,4.10
2022-07-29T15:35:31.250Z,4.28
2022-07-29T15:37:58.443Z,4.20
2022-07-29T15:40:25.839Z,3.80
2022-07-29T15:42:53.000Z,3.92
2022-07-29T15:45:20.321Z,3.90
2022-07-29T15:47:47.526Z,3.88
2022-07-29T15:50:16.672Z,4.32
2022-07-29T15:52:43.902Z,3.70
2022-07-29T15:55:15.627Z,4.20
2022-07-29T15:57:42.864Z,3.85
2022-07-29T16:00:10.660Z,4.30
2022-07-29T16:02:38.027Z,3.88
2022-07-29T16:05:05.684Z,3.83
2022-07-29T16:07:37.731Z,3.70
2022-07-29T16:10:05.557Z,4.15
2022-07-29T16:12:32.722Z,4.10
2022-07-29T16:14:59.916Z,3.90
2022-07-29T16:17:27.656Z,4.25
2022-07-29T16:19:54.955Z,4.07
2022-07-29T16:22:22.684Z,4.10
2022-07-29T16:24:49.898Z,4.13
2022-07-29T16:27:17.091Z,4.00
2022-07-29T16:29:44.323Z,3.83
2022-07-29T16:32:11.634Z,3.60
2022-07-29T16:34:39.791Z,3.63
2022-07-29T16:37:07.043Z,3.93
2022-07-29T16:39:34.252Z,3.63
2022-07-29T16:42:04.996Z,4.23
2022-07-29T16:44:33.089Z,3.90
2022-07-29T16:47:01.599Z,4.65
2022-07-29T16:49:30.026Z,3.80
2022-07-29T16:51:59.727Z,3.67
2022-07-29T16:54:27.821Z,4.22
2022-07-29T16:56:55.285Z,3.63
2022-07-29T16:59:22.890Z,4.10
2022-07-29T17:01:52.802Z,4.13
2022-07-29T17:04:20.109Z,3.60
2022-07-29T17:06:50.517Z,3.50
2022-07-29T17:09:17.696Z,3.23
2022-07-29T17:11:52.834Z,3.47
2022-07-29T17:14:27.525Z,3.20
2022-07-29T17:17:00.249Z,3.60
2022-07-29T17:19:29.911Z,3.40
2022-07-29T17:22:05.008Z,3.60
2022-07-29T17:24:38.982Z,3.30
2022-07-29T17:27:10.333Z,3.22
2022-07-29T17:29:38.863Z,3.40
2022-07-29T17:32:07.768Z,3.75
2022-07-29T17:34:36.575Z,3.30
2022-07-29T17:37:05.502Z,3.42
2022-07-29T17:39:34.972Z,3.13
2022-07-29T17:42:03.470Z,6.30
2022-07-29T17:44:30.830Z,4.13
2022-07-29T17:47:02.349Z,3.00
2022-07-29T17:49:29.787Z,3.30
2022-07-29T17:52:00.747Z,3.40
2022-07-29T17:54:28.407Z,3.50
2022-07-29T17:56:55.785Z,3.33
2022-07-29T17:59:23.211Z,3.10
2022-07-29T18:01:50.494Z,4.65
2022-07-29T18:04:23.140Z,3.40
2022-07-29T18:06:50.534Z,3.33
2022-07-29T18:09:17.833Z,3.63
2022-07-29T18:11:46.180Z,3.33
2022-07-29T18:14:13.428Z,3.25
2022-07-29T18:16:41.013Z,3.47
2022-07-29T18:19:08.340Z,2.60
2022-07-29T18:21:43.430Z,2.80
2022-07-29T18:24:19.249Z,2.65
2022-07-29T18:26:46.424Z,2.55
2022-07-29T18:29:13.629Z,2.60
2022-07-29T18:31:41.083Z,2.70
2022-07-29T18:34:08.480Z,2.95
2022-07-29T18:36:35.659Z,2.83
2022-07-29T18:39:03.030Z,2.70
2022-07-29T18:41:30.228Z,2.42
2022-07-29T18:44:02.656Z,2.50
2022-07-29T18:46:31.629Z,2.45
2022-07-29T18:49:00.544Z,2.67
2022-07-29T18:51:27.790Z,2.42
2022-07-29T18:53:55.077Z,2.30
2022-07-29T18:56:22.330Z,2.30
2022-07-29T18:58:49.539Z,2.30
2022-07-29T19:01:18.892Z,2.30
2022-07-29T19:03:46.101Z,2.50
2022-07-29T19:06:13.630Z,2.50
2022-07-29T19:08:41.691Z,2.03
2022-07-29T19:11:08.950Z,2.28
2022-07-29T19:13:37.042Z,2.28
2022-07-29T19:16:05.610Z,2.72
2022-07-29T19:18:32.842Z,2.38
2022-07-29T19:21:00.180Z,2.50
2022-07-29T19:23:27.561Z,2.30
2022-07-29T19:25:54.731Z,2.40
2022-07-29T19:28:22.289Z,2.63
2022-07-29T19:30:49.880Z,2.58
2022-07-29T19:33:20.393Z,2.90
2022-07-29T19:35:51.527Z,2.88
2022-07-29T19:38:22.154Z,2.80
2022-07-29T19:40:49.437Z,2.90
2022-07-29T19:43:51.367Z,3.00
2022-07-29T19:46:06.629Z,3.20
2022-07-29T19:48:34.193Z,2.90
2022-07-29T19:51:04.261Z,2.95
2022-07-29T19:53:32.788Z,2.90
2022-07-29T19:55:59.932Z,2.80
2022-07-29T19:58:30.242Z,2.90
2022-07-29T20:01:00.685Z,2.90
2022-07-29T20:03:28.366Z,3.05
2022-07-29T20:05:55.686Z,2.90
2022-07-29T20:08:22.879Z,3.20
2022-07-29T20:10:54.647Z,3.00
2022-07-29T20:13:21.850Z,2.97
2022-07-29T20:15:49.218Z,2.90
2022-07-29T20:18:16.435Z,3.00
2022-07-29T20:20:43.958Z,3.00
2022-07-29T20:23:13.402Z,3.10
2022-07-29T20:25:43.176Z,3.00
2022-07-29T20:28:10.394Z,3.47
2022-07-29T20:30:38.411Z,3.10
2022-07-29T20:33:06.602Z,3.10
2022-07-29T20:35:34.491Z,3.13
2022-07-29T20:38:01.885Z,3.20
2022-07-29T20:40:31.122Z,3.20
2022-07-29T20:43:01.058Z,2.90
2022-07-29T20:45:28.247Z,2.93
2022-07-29T20:47:55.626Z,3.03
2022-07-29T20:50:24.456Z,3.27
2022-07-29T20:52:54.929Z,3.40
2022-07-29T20:55:22.173Z,3.17
2022-07-29T20:57:49.786Z,2.97
2022-07-29T21:00:17.195Z,3.20
2022-07-29T21:02:47.165Z,3.38
2022-07-29T21:05:14.570Z,3.10
2022-07-29T21:07:41.789Z,2.92
2022-07-29T21:10:09.470Z,2.90
2022-07-29T21:12:36.820Z,3.20
2022-07-29T21:15:06.308Z,3.05
2022-07-29T21:17:40.585Z,3.30
2022-07-29T21:20:08.511Z,3.25
2022-07-29T21:22:35.800Z,3.78
2022-07-29T21:25:03.424Z,3.55
2022-07-29T21:27:49.358Z,3.30
2022-07-29T21:30:16.777Z,3.30
2022-07-29T21:32:44.217Z,3.70
2022-07-29T21:35:27.267Z,3.30
2022-07-29T21:37:59.120Z,3.40
2022-07-29T21:40:26.312Z,3.40
2022-07-29T21:42:53.481Z,3.42
2022-07-29T21:45:20.675Z,3.25
2022-07-29T21:47:47.884Z,3.78
2022-07-29T21:50:15.111Z,3.53
2022-07-29T21:52:42.293Z,3.97
2022-07-29T21:55:10.616Z,3.60
2022-07-29T21:57:38.844Z,3.40
2022-07-29T22:00:08.286Z,4.32
2022-07-29T22:02:39.676Z,3.63
2022-07-29T22:05:07.199Z,3.63
2022-07-29T22:07:55.489Z,4.03
2022-07-29T22:10:22.396Z,3.67
2022-07-29T22:12:54.396Z,3.83
2022-07-29T22:15:22.279Z,3.50
2022-07-29T22:17:49.789Z,3.85
2022-07-29T22:20:17.767Z,3.40
2022-07-29T22:22:45.126Z,3.95
2022-07-29T22:25:12.400Z,4.03
2022-07-29T22:27:39.687Z,3.88
2022-07-29T22:30:07.997Z,3.60
2022-07-29T22:32:35.617Z,3.78
2022-07-29T22:35:02.910Z,3.90
2022-07-29T22:37:30.220Z,3.90
2022-07-29T22:39:57.441Z,3.70
2022-07-29T22:42:24.637Z,4.00
2022-07-29T22:44:51.810Z,3.88
2022-07-29T22:47:19.003Z,3.78
2022-07-29T22:50:06.615Z,3.58
2022-07-29T22:52:33.846Z,4.40
2022-07-29T22:55:01.040Z,3.80
2022-07-29T22:57:28.615Z,3.95
2022-07-29T22:59:55.862Z,4.20
2022-07-29T23:02:23.054Z,4.00
2022-07-29T23:04:50.273Z,4.10
2022-07-29T23:07:17.635Z,4.53
2022-07-29T23:09:44.834Z,4.30
2022-07-29T23:12:12.062Z,4.22
2022-07-29T23:14:39.333Z,4.43
2022-07-29T23:17:06.633Z,4.38
2022-07-29T23:19:33.848Z,4.40
2022-07-29T23:22:01.053Z,4.30
2022-07-29T23:24:28.245Z,4.07
2022-07-29T23:26:55.435Z,4.70
2022-07-29T23:29:22.679Z,4.30
2022-07-29T23:31:49.937Z,4.30
2022-07-29T23:34:17.187Z,4.50
2022-07-29T23:36:44.365Z,4.38
2022-07-29T23:39:13.061Z,4.78
2022-07-29T23:41:40.404Z,4.60
2022-07-29T23:44:07.694Z,4.63
2022-07-29T23:46:35.010Z,4.75
2022-07-29T23:49:02.323Z,4.50
2022-07-29T23:51:29.703Z,4.50
2022-07-29T23:53:57.172Z,4.60
2022-07-29T23:56:24.420Z,4.40
2022-07-29T23:58:51.615Z,4.72
